Time;durP1;ratioP1;P1;durP2;ratioP2;P2;SDS_P1;SDS_P2;PMS_P1;PMS_P2;Temp;Humidity;BMP_temperature;BMP_pressure;BME280_temperature;BME280_humidity;BME280_pressure;Samples;Min_cycle;Max_cycle;Signal;HPM_P1;HPM_P2
2022/03/08 00:00:22;;;;;;;22.67;10.60;;;3.60;87.60;;;;;;5011528;28;20113;-68
2022/03/08 00:02:47;;;;;;;24.67;10.02;;;3.50;88.00;;;;;;5011104;28;20038;-69
2022/03/08 00:05:14;;;;;;;21.13;9.98;;;3.40;88.30;;;;;;5011192;28;20046;-69
2022/03/08 00:07:39;;;;;;;23.60;10.48;;;3.40;88.60;;;;;;5011142;28;20068;-69
2022/03/08 00:10:07;;;;;;;20.88;10.63;;;3.50;88.50;;;;;;5011221;28;20046;-69
2022/03/08 00:12:33;;;;;;;;;;;3.50;88.40;;;;;;5011982;28;20030;-70
2022/03/08 00:14:59;;;;;;;27.48;10.88;;;3.40;88.40;;;;;;5011086;28;20008;-70
2022/03/08 00:17:24;;;;;;;24.80;11.10;;;3.40;88.80;;;;;;5010818;28;20037;-68
2022/03/08 00:19:50;;;;;;;20.73;10.05;;;3.40;88.80;;;;;;5011190;28;20065;-68
2022/03/08 00:22:16;;;;;;;16.20;8.85;;;3.30;88.70;;;;;;5010948;28;20033;-68
2022/03/08 00:24:42;;;;;;;20.88;10.23;;;3.40;88.80;;;;;;5010941;28;20038;-69
2022/03/08 00:27:07;;;;;;;21.33;11.10;;;3.30;89.10;;;;;;5011194;28;20072;-68
2022/03/08 00:29:33;;;;;;;21.35;10.45;;;3.20;89.60;;;;;;5010897;28;20041;-69
2022/03/08 00:31:59;;;;;;;25.88;10.65;;;3.30;90.00;;;;;;5010647;28;20038;-68
2022/03/08 00:34:25;;;;;;;21.02;10.13;;;3.40;88.90;;;;;;5011006;28;20037;-69
2022/03/08 00:36:50;;;;;;;25.00;10.32;;;3.30;89.10;;;;;;5010857;28;20026;-67
2022/03/08 00:39:18;;;;;;;22.33;10.93;;;3.30;89.20;;;;;;5011987;28;20030;-68
2022/03/08 00:41:44;;;;;;;23.15;10.93;;;3.30;89.30;;;;;;5014680;28;20040;-69
2022/03/08 00:44:10;;;;;;;23.48;10.48;;;3.30;89.60;;;;;;5013568;28;20379;-69
2022/03/08 00:46:36;;;;;;;22.95;9.55;;;3.20;89.60;;;;;;5014354;28;20065;-68
2022/03/08 00:49:01;;;;;;;21.58;10.27;;;3.10;89.80;;;;;;5014552;28;20383;-70
2022/03/08 00:51:27;;;;;;;20.95;9.95;;;3.10;90.00;;;;;;5014869;28;20037;-69
2022/03/08 00:53:52;;;;;;;24.95;11.07;;;3.10;90.10;;;;;;5014455;28;20419;-70
2022/03/08 00:56:18;;;;;;;21.33;9.98;;;3.10;90.10;;;;;;5013458;28;20613;-70
2022/03/08 00:58:44;;;;;;;22.40;11.05;;;3.10;90.30;;;;;;5014500;28;20637;-70
2022/03/08 01:01:09;;;;;;;23.27;10.93;;;3.00;90.10;;;;;;5014471;28;20037;-70
2022/03/08 01:03:35;;;;;;;21.15;9.93;;;3.00;90.20;;;;;;5015008;28;20025;-69
2022/03/08 01:06:01;;;;;;;22.15;10.15;;;3.00;90.20;;;;;;5014074;28;20370;-69
2022/03/08 01:08:27;;;;;;;22.38;10.13;;;3.00;90.20;;;;;;5014243;28;20026;-69
2022/03/08 01:10:52;;;;;;;26.20;10.32;;;3.00;90.20;;;;;;5014173;28;20030;-69
2022/03/08 01:13:18;;;;;;;23.58;10.32;;;2.90;90.20;;;;;;5012728;28;20033;-69
2022/03/08 01:15:44;;;;;;;19.95;10.80;;;2.90;90.30;;;;;;5013922;28;20611;-70
2022/03/08 01:18:10;;;;;;;28.75;11.30;;;2.90;90.40;;;;;;5014468;28;20022;-70
2022/03/08 01:20:36;;;;;;;22.92;10.52;;;2.80;90.50;;;;;;5013996;28;20026;-69
2022/03/08 01:23:02;;;;;;;20.33;11.02;;;2.80;90.50;;;;;;5013853;28;20122;-69
2022/03/08 01:25:27;;;;;;;24.23;11.27;;;2.80;90.40;;;;;;5013996;28;20060;-69
2022/03/08 01:27:53;;;;;;;23.38;10.80;;;2.70;90.50;;;;;;5013850;28;20034;-69
2022/03/08 01:30:22;;;;;;;25.73;11.23;;;2.70;90.60;;;;;;5013989;28;20488;-69
2022/03/08 01:32:48;;;;;;;27.70;10.95;;;2.70;90.50;;;;;;5013937;28;20112;-69
2022/03/08 01:35:14;;;;;;;21.23;10.73;;;2.70;90.60;;;;;;5013042;28;20152;-70
2022/03/08 01:37:40;;;;;;;24.23;11.05;;;2.70;90.70;;;;;;5013774;28;20045;-69
2022/03/08 01:40:07;;;;;;;25.80;12.48;;;2.60;90.80;;;;;;5014220;28;20022;-69
2022/03/08 01:42:33;;;;;;;33.40;10.45;;;2.70;90.90;;;;;;5015366;28;20022;-70
2022/03/08 01:44:59;;;;;;;25.15;12.65;;;2.60;91.00;;;;;;5014850;28;20038;-69
2022/03/08 01:47:25;;;;;;;30.42;12.38;;;2.60;90.90;;;;;;5013215;28;20061;-70
2022/03/08 01:49:53;;;;;;;27.00;12.25;;;2.60;91.00;;;;;;5012270;28;20041;-69
2022/03/08 01:52:22;;;;;;;28.67;11.85;;;2.60;91.00;;;;;;5012756;28;20045;-69
2022/03/08 01:54:48;;;;;;;27.15;12.88;;;2.50;91.10;;;;;;5013441;28;20025;-70
2022/03/08 01:57:14;;;;;;;26.40;12.10;;;2.70;91.20;;;;;;5013717;28;20128;-70
2022/03/08 01:59:41;;;;;;;23.05;11.65;;;2.60;91.10;;;;;;5013498;28;20057;-69
2022/03/08 02:02:07;;;;;;;28.20;13.57;;;2.50;91.10;;;;;;5013262;28;20037;-70
2022/03/08 02:04:32;;;;;;;25.67;13.35;;;2.60;91.20;;;;;;5013141;28;20088;-69
2022/03/08 02:07:00;;;;;;;23.50;12.02;;;2.60;91.10;;;;;;5011985;28;20045;-69
2022/03/08 02:09:26;;;;;;;25.50;12.43;;;2.60;91.20;;;;;;5013713;28;20034;-69
2022/03/08 02:11:51;;;;;;;31.23;12.93;;;2.50;91.10;;;;;;5013071;28;20384;-69
2022/03/08 02:14:18;;;;;;;31.88;12.45;;;2.50;91.30;;;;;;5012886;28;20092;-70
2022/03/08 02:16:45;;;;;;;26.60;12.90;;;2.50;91.20;;;;;;5012844;28;20034;-69
2022/03/08 02:19:12;;;;;;;28.80;12.55;;;2.50;91.30;;;;;;5012841;28;20091;-69
2022/03/08 02:21:38;;;;;;;26.75;12.82;;;2.40;91.70;;;;;;5013059;28;20026;-70
2022/03/08 02:24:04;;;;;;;33.53;14.55;;;2.40;91.40;;;;;;5012910;28;20427;-70
2022/03/08 02:26:31;;;;;;;32.97;13.35;;;2.40;91.40;;;;;;5012675;28;20025;-71
2022/03/08 02:29:01;;;;;;;26.20;13.05;;;2.40;91.50;;;;;;5012555;28;20026;-68
2022/03/08 02:31:26;;;;;;;25.63;12.90;;;2.40;91.50;;;;;;5012638;28;20371;-69
2022/03/08 02:33:52;;;;;;;30.55;13.20;;;2.30;91.60;;;;;;5012655;28;20207;-68
2022/03/08 02:36:17;;;;;;;23.58;12.10;;;2.40;91.50;;;;;;5012769;28;20026;-69
2022/03/08 02:38:43;;;;;;;27.67;12.75;;;2.30;91.50;;;;;;5012472;28;20030;-70
2022/03/08 02:41:09;;;;;;;26.85;13.38;;;2.30;91.60;;;;;;5012555;28;20056;-69
2022/03/08 02:43:35;;;;;;;30.30;13.07;;;2.40;91.70;;;;;;5012401;28;20495;-69
2022/03/08 02:46:00;;;;;;;33.13;12.52;;;2.40;91.70;;;;;;5012133;28;20026;-69
2022/03/08 02:48:27;;;;;;;26.48;13.35;;;2.30;91.60;;;;;;5012452;28;20468;-70
2022/03/08 02:50:53;;;;;;;25.08;13.20;;;2.40;91.60;;;;;;5012106;28;20022;-70
2022/03/08 02:53:19;;;;;;;28.10;13.95;;;2.30;91.70;;;;;;5012179;28;20030;-70
2022/03/08 02:55:44;;;;;;;25.83;12.18;;;2.30;91.80;;;;;;5012051;28;20083;-70
2022/03/08 02:58:10;;;;;;;25.83;11.65;;;2.30;91.80;;;;;;5012315;28;20036;-70
2022/03/08 03:00:36;;;;;;;26.70;13.55;;;2.30;91.60;;;;;;5012428;28;20363;-70
2022/03/08 03:03:03;;;;;;;25.23;11.57;;;2.20;91.80;;;;;;5011211;28;20041;-69
2022/03/08 03:05:29;;;;;;;27.50;12.48;;;2.30;92.10;;;;;;5012072;28;20598;-69
2022/03/08 03:07:56;;;;;;;24.80;10.77;;;2.20;91.70;;;;;;5010835;28;20056;-71
2022/03/08 03:10:23;;;;;;;22.38;10.82;;;2.20;91.70;;;;;;5011931;28;20057;-69
2022/03/08 03:12:50;;;;;;;27.60;11.95;;;2.20;91.90;;;;;;5011877;28;20133;-70
2022/03/08 03:15:18;;;;;;;27.27;12.07;;;2.20;92.00;;;;;;5012382;28;20021;-69
2022/03/08 03:17:44;;;;;;;28.73;12.48;;;2.10;91.90;;;;;;5011796;28;20025;-70
2022/03/08 03:20:12;;;;;;;24.88;11.40;;;2.20;91.90;;;;;;5011706;28;20030;-71
2022/03/08 03:22:38;;;;;;;29.52;12.02;;;2.10;92.00;;;;;;5011659;28;20114;-70
2022/03/08 03:25:04;;;;;;;28.27;12.02;;;2.10;91.90;;;;;;5010468;28;20447;-69
2022/03/08 03:27:30;;;;;;;25.65;11.65;;;2.00;92.00;;;;;;5011771;28;20120;-70
2022/03/08 03:29:56;;;;;;;23.80;11.70;;;1.90;92.10;;;;;;5011344;28;20117;-72
2022/03/08 03:32:23;;;;;;;25.48;12.25;;;1.90;92.20;;;;;;5011486;28;20341;-69
2022/03/08 03:34:49;;;;;;;29.20;12.33;;;2.00;92.10;;;;;;5011401;28;20104;-71
2022/03/08 03:37:14;;;;;;;27.60;13.00;;;2.00;92.20;;;;;;5011384;28;20030;-71
2022/03/08 03:39:40;;;;;;;33.45;12.77;;;1.90;92.10;;;;;;5010159;28;20033;-71
2022/03/08 03:42:06;;;;;;;30.58;13.48;;;1.80;92.20;;;;;;5011656;28;20631;-70
2022/03/08 03:44:32;;;;;;;26.83;12.60;;;1.80;92.30;;;;;;5011284;28;20054;-71
2022/03/08 03:46:57;;;;;;;28.88;13.20;;;1.90;92.40;;;;;;5011331;28;20046;-71
2022/03/08 03:49:23;;;;;;;31.25;14.00;;;1.90;92.20;;;;;;5011449;28;20030;-70
2022/03/08 03:51:51;;;;;;;26.45;12.90;;;1.80;92.20;;;;;;5011350;28;20045;-70
2022/03/08 03:54:20;;;;;;;27.45;12.98;;;1.80;92.20;;;;;;5010643;28;20110;-70
2022/03/08 03:56:46;;;;;;;28.38;13.45;;;1.80;92.30;;;;;;5011198;28;20038;-70
2022/03/08 03:59:12;;;;;;;27.77;13.27;;;1.90;92.40;;;;;;5011436;28;20516;-71
2022/03/08 04:01:37;;;;;;;29.08;13.25;;;1.90;92.30;;;;;;5011443;28;20129;-71
2022/03/08 04:04:03;;;;;;;32.83;12.88;;;1.90;92.30;;;;;;5011159;28;20476;-70
2022/03/08 04:06:29;;;;;;;32.97;13.93;;;1.80;92.30;;;;;;5011593;28;20368;-71
2022/03/08 04:08:54;;;;;;;23.58;11.93;;;1.90;92.30;;;;;;5011216;28;20027;-70
2022/03/08 04:11:20;;;;;;;27.13;12.43;;;1.80;92.30;;;;;;5010044;28;20026;-70
2022/03/08 04:13:45;;;;;;;30.25;13.10;;;1.80;92.30;;;;;;5010955;28;20284;-69
2022/03/08 04:16:11;;;;;;;31.10;13.05;;;1.80;92.30;;;;;;5014843;28;20085;-69
2022/03/08 04:18:37;;;;;;;32.40;12.05;;;1.80;92.30;;;;;;5015372;28;20030;-71
2022/03/08 04:21:06;;;;;;;30.75;13.40;;;1.80;92.30;;;;;;5015158;28;20026;-69
2022/03/08 04:23:31;;;;;;;28.00;12.73;;;1.70;92.30;;;;;;5015024;28;20034;-69
2022/03/08 04:25:57;;;;;;;24.25;12.98;;;1.70;92.50;;;;;;5014855;28;20034;-70
2022/03/08 04:28:22;;;;;;;29.83;12.70;;;1.70;92.50;;;;;;5014835;28;20088;-70
2022/03/08 04:30:48;;;;;;;25.95;12.50;;;1.70;92.40;;;;;;5014692;28;20112;-70
2022/03/08 04:33:14;;;;;;;30.23;13.57;;;1.70;92.50;;;;;;5015184;28;20018;-69
2022/03/08 04:35:39;;;;;;;24.60;11.95;;;1.70;92.50;;;;;;5014723;28;20109;-70
2022/03/08 04:38:05;;;;;;;27.33;12.10;;;1.70;92.40;;;;;;5014652;28;20036;-71
2022/03/08 04:40:31;;;;;;;28.63;13.23;;;1.70;92.40;;;;;;5013538;28;20026;-70
2022/03/08 04:42:56;;;;;;;24.95;12.63;;;1.70;92.40;;;;;;5013483;28;20017;-71
2022/03/08 04:45:22;;;;;;;29.65;12.95;;;1.80;92.50;;;;;;5013771;28;20367;-70
2022/03/08 04:47:48;;;;;;;26.45;11.50;;;1.70;92.40;;;;;;5014343;28;20170;-70
2022/03/08 04:50:16;;;;;;;29.50;13.32;;;1.70;92.50;;;;;;5014572;28;20046;-70
2022/03/08 04:52:46;;;;;;;31.90;13.10;;;1.90;92.40;;;;;;5014076;28;20477;-69
2022/03/08 04:55:14;;;;;;;29.15;12.93;;;1.70;92.30;;;;;;5014521;28;20036;-70
2022/03/08 04:57:39;;;;;;;31.33;12.27;;;1.80;92.30;;;;;;5014455;28;20026;-70
2022/03/08 05:00:07;;;;;;;27.08;12.98;;;1.80;92.10;;;;;;5014711;28;20072;-71
2022/03/08 05:02:34;;;;;;;32.63;12.10;;;1.70;92.50;;;;;;5014331;28;20026;-71
2022/03/08 05:04:59;;;;;;;39.70;14.52;;;1.70;92.60;;;;;;5014178;28;20038;-71
2022/03/08 05:07:25;;;;;;;29.80;13.55;;;1.60;92.40;;;;;;5013152;28;20100;-71
2022/03/08 05:09:51;;;;;;;28.90;13.98;;;1.70;92.50;;;;;;5014260;28;20088;-71
2022/03/08 05:12:16;;;;;;;26.25;13.43;;;1.70;92.50;;;;;;5014540;28;20097;-69
2022/03/08 05:14:42;;;;;;;27.08;14.02;;;1.70;92.50;;;;;;5012970;28;20594;-69
2022/03/08 05:17:08;;;;;;;32.40;14.77;;;1.80;92.70;;;;;;5013903;28;20056;-71
2022/03/08 05:19:33;;;;;;;34.10;15.25;;;1.70;92.80;;;;;;5014002;28;20029;-71
2022/03/08 05:21:59;;;;;;;36.15;14.88;;;1.70;92.70;;;;;;5013800;28;20034;-70
2022/03/08 05:24:25;;;;;;;29.88;14.48;;;1.70;92.90;;;;;;5014120;28;20034;-69
2022/03/08 05:26:51;;;;;;;33.13;15.30;;;1.80;92.90;;;;;;5011568;28;20125;-69
2022/03/08 05:29:16;;;;;;;29.77;14.43;;;1.80;93.00;;;;;;5013978;28;20404;-70
2022/03/08 05:31:42;;;;;;;38.25;15.25;;;1.80;92.80;;;;;;5012444;28;20041;-70
2022/03/08 05:34:07;;;;;;;36.33;15.13;;;1.70;92.70;;;;;;5013617;28;20037;-70
2022/03/08 05:36:34;;;;;;;34.38;15.50;;;1.70;92.80;;;;;;5014021;28;20084;-70
2022/03/08 05:39:00;;;;;;;38.50;15.15;;;1.60;92.80;;;;;;5013680;28;20076;-70
2022/03/08 05:41:26;;;;;;;33.22;13.95;;;1.60;92.90;;;;;;5013425;28;20050;-70
2022/03/08 05:43:51;;;;;;;34.47;14.85;;;1.70;92.90;;;;;;5013397;28;20108;-69
2022/03/08 05:46:17;;;;;;;28.92;14.13;;;1.70;92.80;;;;;;5013314;28;20038;-70
2022/03/08 05:48:42;;;;;;;35.10;15.52;;;1.80;92.70;;;;;;5013371;28;20038;-70
2022/03/08 05:51:08;;;;;;;29.52;14.52;;;1.80;92.50;;;;;;5013797;28;20036;-70
2022/03/08 05:53:34;;;;;;;31.10;14.60;;;1.80;92.60;;;;;;5013172;28;20440;-69
2022/03/08 05:55:59;;;;;;;37.95;15.55;;;1.70;92.60;;;;;;5013303;28;20037;-70
2022/03/08 05:58:25;;;;;;;28.05;14.38;;;1.70;92.70;;;;;;5012249;28;20403;-69
2022/03/08 06:00:51;;;;;;;32.58;14.00;;;1.70;92.70;;;;;;5013144;28;20165;-70
2022/03/08 06:03:16;;;;;;;33.67;14.90;;;1.60;92.60;;;;;;5013795;28;20033;-70
2022/03/08 06:05:42;;;;;;;31.50;14.45;;;1.70;92.80;;;;;;5013084;28;20121;-70
2022/03/08 06:08:07;;;;;;;28.00;13.18;;;1.70;92.70;;;;;;5013083;28;20095;-71
2022/03/08 06:10:33;;;;;;;31.55;13.63;;;1.60;92.60;;;;;;5012879;28;20095;-70
2022/03/08 06:12:59;;;;;;;34.35;13.98;;;1.70;92.70;;;;;;5011656;28;20042;-70
2022/03/08 06:15:25;;;;;;;33.72;13.90;;;1.70;92.70;;;;;;5013263;28;20029;-71
2022/03/08 06:17:51;;;;;;;30.10;13.48;;;1.60;92.60;;;;;;5012813;28;20022;-72
2022/03/08 06:20:16;;;;;;;25.83;13.00;;;1.60;92.80;;;;;;5012854;28;20343;-71
2022/03/08 06:22:42;;;;;;;32.03;13.90;;;1.60;92.80;;;;;;5012769;28;20053;-71
2022/03/08 06:25:08;;;;;;;31.02;13.60;;;1.60;92.80;;;;;;5012697;28;20112;-70
2022/03/08 06:27:34;;;;;;;30.52;13.85;;;1.60;92.80;;;;;;5011804;28;20333;-71
2022/03/08 06:30:00;;;;;;;37.15;16.02;;;1.80;92.80;;;;;;5012540;28;20463;-70
2022/03/08 06:32:26;;;;;;;32.70;14.77;;;1.80;92.70;;;;;;5012439;28;20033;-70
2022/03/08 06:34:52;;;;;;;29.17;14.32;;;1.80;92.80;;;;;;5012782;28;20026;-71
2022/03/08 06:37:18;;;;;;;34.88;14.20;;;1.90;92.80;;;;;;5012145;28;20773;-71
2022/03/08 06:39:44;;;;;;;39.03;14.07;;;1.90;92.90;;;;;;5012304;28;20040;-72
2022/03/08 06:42:10;;;;;;;38.85;15.18;;;1.90;93.00;;;;;;5012792;28;20018;-72
2022/03/08 06:44:38;;;;;;;30.75;15.00;;;2.00;93.30;;;;;;5012288;28;20080;-70
2022/03/08 06:47:08;;;;;;;33.42;15.57;;;2.10;93.20;;;;;;5011856;28;20112;-70
2022/03/08 06:49:34;;;;;;;30.77;14.32;;;2.10;93.10;;;;;;5011739;28;20091;-70
2022/03/08 06:52:00;;;;;;;29.65;14.60;;;2.20;93.30;;;;;;5011992;28;20460;-70
2022/03/08 06:54:25;;;;;;;31.90;14.52;;;2.20;93.10;;;;;;5012329;28;20423;-71
2022/03/08 06:56:51;;;;;;;39.40;15.77;;;2.30;93.30;;;;;;5011930;28;20026;-70
2022/03/08 06:59:17;;;;;;;40.13;16.73;;;2.30;93.30;;;;;;5011764;28;20121;-69
2022/03/08 07:01:42;;;;;;;51.15;19.98;;;2.50;93.10;;;;;;5011844;28;20046;-69
2022/03/08 07:04:08;;;;;;;42.88;17.77;;;2.60;93.00;;;;;;5011699;28;20084;-70
2022/03/08 07:06:33;;;;;;;36.75;14.48;;;2.70;92.80;;;;;;5012212;28;20165;-70
2022/03/08 07:08:59;;;;;;;34.63;15.80;;;2.70;92.60;;;;;;5011991;28;20452;-70
2022/03/08 07:11:25;;;;;;;31.80;14.60;;;2.70;92.70;;;;;;5011649;28;20030;-69
2022/03/08 07:13:50;;;;;;;34.85;15.23;;;2.60;92.50;;;;;;5010754;28;20034;-71
2022/03/08 07:16:16;;;;;;;31.52;14.13;;;2.70;92.80;;;;;;5011559;28;20085;-69
2022/03/08 07:18:42;;;;;;;46.67;21.70;;;2.70;93.00;;;;;;5011180;28;20022;-71
2022/03/08 07:21:07;;;;;;;46.28;17.63;;;2.70;92.80;;;;;;5011526;28;20022;-73
2022/03/08 07:23:33;;;;;;;29.73;14.75;;;2.80;92.70;;;;;;5011070;28;20026;-72
2022/03/08 07:25:59;;;;;;;41.08;18.15;;;2.80;92.80;;;;;;5010880;28;20029;-72
2022/03/08 07:28:25;;;;;;;35.50;15.43;;;2.90;92.90;;;;;;5010809;28;20401;-70
2022/03/08 07:30:50;;;;;;;26.23;13.85;;;2.90;92.90;;;;;;5011095;28;20022;-70
2022/03/08 07:33:16;;;;;;;42.80;17.85;;;3.00;92.60;;;;;;5011632;28;20018;-72
2022/03/08 07:35:41;;;;;;;41.53;17.80;;;3.00;92.60;;;;;;5010931;28;20407;-72
2022/03/08 07:38:08;;;;;;;32.92;15.95;;;3.10;92.60;;;;;;5010915;28;20483;-72
2022/03/08 07:40:34;;;;;;;29.33;14.18;;;3.10;92.70;;;;;;5011048;28;20042;-69
2022/03/08 07:43:01;;;;;;;26.15;13.88;;;3.20;92.70;;;;;;5009956;28;20044;-74
2022/03/08 07:45:27;;;;;;;26.63;12.82;;;3.20;92.40;;;;;;5011678;28;20079;-70
2022/03/08 07:47:53;;;;;;;24.55;12.57;;;3.30;92.50;;;;;;5011107;28;20519;-71
2022/03/08 07:50:18;;;;;;;33.17;13.80;;;3.40;92.30;;;;;;5010482;28;20033;-70
2022/03/08 07:52:44;;;;;;;30.92;13.50;;;3.50;92.10;;;;;;5010808;28;20041;-69
2022/03/08 07:55:10;;;;;;;42.05;14.52;;;3.60;92.10;;;;;;5010977;28;20053;-70
2022/03/08 07:57:35;;;;;;;30.23;14.27;;;3.60;92.20;;;;;;5011167;28;20057;-71
2022/03/08 08:00:04;;;;;;;31.65;12.93;;;3.70;92.20;;;;;;5010618;28;20223;-69
2022/03/08 08:02:30;;;;;;;30.48;12.90;;;3.80;92.00;;;;;;5010773;28;20037;-69
2022/03/08 08:04:56;;;;;;;27.15;12.10;;;4.00;91.70;;;;;;5010766;28;20034;-68
2022/03/08 08:07:22;;;;;;;33.55;11.80;;;4.10;91.80;;;;;;5010494;28;20037;-67
2022/03/08 08:09:47;;;;;;;31.60;13.55;;;4.20;91.60;;;;;;5009359;28;20080;-67
2022/03/08 08:12:13;;;;;;;30.05;12.38;;;4.30;91.50;;;;;;5011069;28;20105;-72
2022/03/08 08:14:39;;;;;;;29.63;12.45;;;4.40;91.30;;;;;;5011047;28;20037;-73
2022/03/08 08:17:05;;;;;;;22.48;11.90;;;4.50;91.00;;;;;;5009619;28;20030;-72
2022/03/08 08:19:31;;;;;;;24.20;10.65;;;4.60;90.70;;;;;;5010232;28;20041;-74
2022/03/08 08:21:57;;;;;;;26.25;12.15;;;4.70;90.40;;;;;;5011709;28;20025;-73
2022/03/08 08:24:23;;;;;;;22.27;11.68;;;4.80;90.20;;;;;;5012133;28;20294;-73
2022/03/08 08:26:48;;;;;;;27.23;11.52;;;4.90;90.00;;;;;;5011347;28;20341;-72
2022/03/08 08:29:14;;;;;;;22.98;10.63;;;5.00;89.90;;;;;;5010310;28;20022;-70
2022/03/08 08:31:39;;;;;;;27.80;10.77;;;5.10;89.50;;;;;;5009655;28;20052;-70
2022/03/08 08:34:05;;;;;;;29.15;10.45;;;5.10;89.50;;;;;;5009329;28;20033;-71
2022/03/08 08:36:31;;;;;;;17.42;9.32;;;5.20;89.30;;;;;;5009847;28;20026;-70
2022/03/08 08:38:56;;;;;;;19.73;9.75;;;5.30;88.90;;;;;;5010325;28;20133;-74
2022/03/08 08:41:22;;;;;;;24.45;10.88;;;5.40;88.50;;;;;;5010456;28;20563;-73
2022/03/08 08:43:47;;;;;;;24.65;10.02;;;5.40;88.50;;;;;;5010279;28;20034;-73
2022/03/08 08:46:13;;;;;;;19.73;8.55;;;5.50;88.10;;;;;;5010016;28;20044;-74
2022/03/08 08:48:38;;;;;;;16.83;8.60;;;5.60;86.70;;;;;;5009996;28;20049;-73
2022/03/08 08:51:04;;;;;;;21.52;8.48;;;5.70;86.40;;;;;;5009710;28;20181;-72
2022/03/08 08:53:29;;;;;;;17.48;7.25;;;5.80;85.90;;;;;;5010336;28;20233;-71
2022/03/08 08:55:55;;;;;;;16.90;8.25;;;5.90;84.80;;;;;;5010192;28;20034;-71
2022/03/08 08:58:21;;;;;;;11.68;6.68;;;6.10;84.40;;;;;;5010149;28;20054;-71
2022/03/08 09:00:46;;;;;;;13.77;7.20;;;6.30;83.70;;;;;;5011531;28;20033;-71
2022/03/08 09:03:14;;;;;;;10.18;6.28;;;7.10;82.40;;;;;;5014125;28;20017;-70
2022/03/08 09:05:49;;;;;;;;;;;8.80;79.30;;;;;;5014401;28;20060;-73
2022/03/08 09:08:15;;;;;;;15.10;6.15;;;10.80;74.30;;;;;;5013726;28;19918;-71
2022/03/08 09:10:41;;;;;;;9.77;5.40;;;12.80;71.50;;;;;;5012622;28;20340;-73
2022/03/08 09:13:07;;;;;;;10.57;5.13;;;14.00;64.20;;;;;;5013549;28;20038;-72
2022/03/08 09:15:33;;;;;;;15.02;5.82;;;15.10;59.70;;;;;;5012792;28;20026;-72
2022/03/08 09:17:59;;;;;;;10.05;5.13;;;16.10;59.80;;;;;;5013816;28;20052;-73
2022/03/08 09:20:26;;;;;;;9.52;4.70;;;17.10;57.00;;;;;;5013806;28;20034;-72
2022/03/08 09:22:54;;;;;;;8.85;4.32;;;18.20;52.90;;;;;;5013554;28;20057;-73
2022/03/08 09:25:20;;;;;;;8.27;4.68;;;18.70;51.60;;;;;;5013336;28;20030;-74
2022/03/08 09:27:46;;;;;;;10.52;5.15;;;19.20;49.90;;;;;;5012056;28;20022;-74
2022/03/08 09:30:12;;;;;;;8.07;4.72;;;20.00;48.10;;;;;;5013583;28;20042;-74
2022/03/08 09:32:38;;;;;;;7.65;4.15;;;20.90;45.60;;;;;;5013203;28;20042;-75
2022/03/08 09:35:04;;;;;;;7.32;3.97;;;21.30;44.40;;;;;;5012993;28;20057;-76
2022/03/08 09:37:30;;;;;;;7.30;3.90;;;21.70;43.60;;;;;;5014216;28;20038;-74
2022/03/08 09:39:55;;;;;;;5.43;3.67;;;21.80;43.60;;;;;;5013895;28;20098;-74
2022/03/08 09:42:22;;;;;;;6.85;3.95;;;22.20;42.60;;;;;;5015240;28;20052;-72
2022/03/08 09:44:48;;;;;;;7.75;4.10;;;23.00;41.90;;;;;;5013879;28;20061;-70
2022/03/08 09:47:18;;;;;;;6.88;3.75;;;23.20;40.30;;;;;;5012109;28;20053;-71
2022/03/08 09:49:44;;;;;;;6.72;3.65;;;23.90;39.30;;;;;;5014323;28;20038;-73
2022/03/08 09:52:11;;;;;;;5.38;3.20;;;23.80;39.70;;;;;;5012510;28;20034;-73
2022/03/08 09:54:36;;;;;;;5.75;3.10;;;23.40;37.40;;;;;;5013216;28;20089;-71
2022/03/08 09:57:10;;;;;;;6.00;3.85;;;24.20;37.70;;;;;;5013597;28;20463;-72
2022/03/08 09:59:35;;;;;;;6.60;3.75;;;23.70;36.80;;;;;;5014129;28;20041;-75
2022/03/08 10:02:01;;;;;;;6.40;3.40;;;24.20;37.20;;;;;;5013588;28;20366;-72
2022/03/08 10:04:26;;;;;;;10.07;5.82;;;24.90;36.90;;;;;;5013954;28;20045;-71
2022/03/08 10:06:52;;;;;;;4.30;3.13;;;24.40;35.60;;;;;;5013104;28;20076;-69
2022/03/08 10:09:19;;;;;;;6.35;4.10;;;24.10;36.60;;;;;;5013934;28;20054;-74
2022/03/08 10:11:53;;;;;;;10.45;6.53;;;24.20;36.40;;;;;;5013626;28;20030;-71
2022/03/08 10:14:39;;;;;;;3.90;2.70;;;23.20;35.60;;;;;;5013883;28;20129;-71
2022/03/08 10:17:06;;;;;;;7.60;2.65;;;23.90;35.50;;;;;;5012717;28;20049;-73
2022/03/08 10:19:52;;;;;;;5.10;3.10;;;24.10;35.40;;;;;;5012435;28;20030;-73
2022/03/08 10:22:47;;;;;;;7.13;3.90;;;24.50;35.30;;;;;;5012975;28;20038;-72
2022/03/08 10:25:22;;;;;;;8.57;5.18;;;25.50;34.70;;;;;;5012918;28;20099;-71
2022/03/08 10:27:56;;;;;;;7.95;4.85;;;26.10;34.10;;;;;;5012890;28;20113;-70
2022/03/08 10:30:45;;;;;;;7.65;4.20;;;26.00;34.20;;;;;;5014001;28;20352;-74
2022/03/08 10:33:11;;;;;;;7.15;3.75;;;25.90;32.80;;;;;;5012544;28;20430;-73
2022/03/08 10:35:42;;;;;;;6.90;3.08;;;24.70;32.40;;;;;;5012433;28;20083;-73
2022/03/08 10:38:11;;;;;;;6.70;4.00;;;25.00;32.20;;;;;;5012874;28;20262;-72
2022/03/08 10:40:39;;;;;;;10.30;4.15;;;24.90;32.60;;;;;;5013426;28;20116;-72
2022/03/08 10:43:11;;;;;;;9.40;4.07;;;24.60;32.50;;;;;;5013704;28;20030;-74
2022/03/08 10:45:42;;;;;;;10.85;4.13;;;25.30;33.30;;;;;;5014129;28;20026;-74
2022/03/08 10:48:08;;;;;;;9.98;5.95;;;25.30;31.90;;;;;;5012550;28;20085;-74
2022/03/08 10:50:37;;;;;;;6.43;3.80;;;25.30;32.40;;;;;;5012869;28;20138;-72
2022/03/08 10:53:04;;;;;;;5.07;3.25;;;25.60;32.00;;;;;;5012541;28;20087;-72
2022/03/08 10:55:39;;;;;;;6.97;3.50;;;25.20;31.80;;;;;;5010517;28;20060;-72
2022/03/08 10:58:14;;;;;;;5.50;3.05;;;25.10;32.10;;;;;;5011483;28;20115;-73
2022/03/08 11:00:46;;;;;;;5.82;2.85;;;25.30;31.10;;;;;;5011600;28;20026;-73
2022/03/08 11:03:14;;;;;;;4.68;2.40;;;24.90;31.00;;;;;;5011993;28;20019;-73
2022/03/08 11:05:44;;;;;;;;;;;24.30;30.80;;;;;;5012253;28;20125;-73
2022/03/08 11:08:10;;;;;;;2.85;2.00;;;24.40;30.60;;;;;;5011379;28;19929;-74
2022/03/08 11:10:36;;;;;;;3.10;2.00;;;24.40;29.90;;;;;;5011203;28;20034;-74
2022/03/08 11:13:03;;;;;;;9.65;2.60;;;24.60;30.70;;;;;;5011255;28;20180;-72
2022/03/08 11:15:31;;;;;;;4.63;2.20;;;24.40;29.70;;;;;;5011629;28;20044;-72
2022/03/08 11:17:58;;;;;;;5.43;2.28;;;24.40;29.90;;;;;;5011174;28;20026;-71
2022/03/08 11:20:26;;;;;;;4.82;2.30;;;24.20;30.00;;;;;;5011300;28;20036;-73
2022/03/08 11:22:56;;;;;;;4.22;1.95;;;24.40;29.70;;;;;;5011074;28;20030;-72
2022/03/08 11:25:30;;;;;;;5.60;3.75;;;25.20;29.60;;;;;;5010354;28;20034;-73
2022/03/08 11:27:55;;;;;;;5.95;4.18;;;25.10;29.40;;;;;;5010837;28;20034;-72
2022/03/08 11:30:25;;;;;;;4.90;2.10;;;25.80;29.40;;;;;;5011458;28;20044;-72
2022/03/08 11:32:56;;;;;;;3.53;1.90;;;24.80;29.70;;;;;;5011486;28;20025;-71
2022/03/08 11:35:36;;;;;;;2.50;1.52;;;24.20;29.70;;;;;;5011519;28;20360;-72
2022/03/08 11:38:03;;;;;;;6.03;1.60;;;24.90;29.10;;;;;;5009791;28;20040;-72
2022/03/08 11:40:33;;;;;;;8.07;1.88;;;24.60;28.90;;;;;;5011035;28;20034;-71
2022/03/08 11:43:04;;;;;;;2.90;1.30;;;23.50;29.00;;;;;;5011219;28;20014;-72
2022/03/08 11:45:31;;;;;;;2.72;1.42;;;23.90;29.10;;;;;;5011654;28;20110;-72
2022/03/08 11:48:02;;;;;;;3.00;1.20;;;23.30;28.80;;;;;;5010396;28;20376;-71
2022/03/08 11:50:36;;;;;;;1.70;1.10;;;22.90;29.00;;;;;;5010767;28;20026;-70
2022/03/08 11:53:07;;;;;;;5.28;1.63;;;22.50;29.40;;;;;;5010606;28;20581;-71
2022/03/08 11:55:43;;;;;;;3.05;1.10;;;21.20;29.70;;;;;;5010712;28;20121;-70
2022/03/08 11:58:19;;;;;;;5.05;1.10;;;20.40;30.10;;;;;;5009589;28;20030;-72
2022/03/08 12:00:56;;;;;;;3.20;1.35;;;19.40;31.00;;;;;;5010903;28;20068;-69
2022/03/08 12:03:30;;;;;;;2.63;1.63;;;18.80;31.60;;;;;;5011580;28;20355;-71
2022/03/08 12:05:58;;;;;;;1.70;1.10;;;18.60;31.50;;;;;;5011644;28;20117;-71
2022/03/08 12:08:29;;;;;;;3.20;0.87;;;18.30;31.00;;;;;;5011502;28;20038;-70
2022/03/08 12:11:01;;;;;;;3.50;0.85;;;18.20;30.90;;;;;;5010739;28;20767;-69
2022/03/08 12:13:39;;;;;;;0.90;0.75;;;18.00;30.20;;;;;;5009650;28;20041;-69
2022/03/08 12:16:10;;;;;;;1.45;1.02;;;17.70;30.40;;;;;;5009626;28;20117;-69
2022/03/08 12:18:49;;;;;;;10.00;0.93;;;17.50;31.50;;;;;;5011047;28;20026;-69
2022/03/08 12:21:15;;;;;;;2.63;1.02;;;17.20;31.00;;;;;;5011438;28;20092;-71
2022/03/08 12:23:57;;;;;;;1.98;0.80;;;16.70;31.80;;;;;;5010909;28;20026;-70
2022/03/08 12:26:38;;;;;;;0.98;0.60;;;16.60;31.20;;;;;;5010351;28;20056;-69
2022/03/08 12:29:15;;;;;;;1.20;0.73;;;16.20;30.70;;;;;;5010496;28;20042;-68
2022/03/08 12:31:58;;;;;;;1.67;0.60;;;16.10;31.40;;;;;;5010460;28;20052;-69
2022/03/08 12:34:34;;;;;;;0.68;0.65;;;15.60;31.70;;;;;;5010402;28;20057;-68
2022/03/08 12:37:03;;;;;;;1.98;0.80;;;15.40;32.30;;;;;;5013724;28;20052;-70
2022/03/08 12:39:48;;;;;;;1.73;0.60;;;15.40;32.90;;;;;;5014446;28;20109;-70